createdAt,value
2019-05-18T00:02:13.015Z,9.90
2019-05-18T00:04:44.000Z,11.68
2019-05-18T00:07:14.999Z,12.00
2019-05-18T00:09:45.973Z,10.82
2019-05-18T00:12:16.993Z,11.28
2019-05-18T00:14:47.942Z,10.78
2019-05-18T00:17:25.412Z,9.98
2019-05-18T00:19:51.987Z,10.10
2019-05-18T00:22:22.955Z,8.80
2019-05-18T00:24:55.018Z,11.48
2019-05-18T00:27:26.071Z,9.98
2019-05-18T00:29:57.050Z,11.38
2019-05-18T00:32:28.026Z,10.93
2019-05-18T00:34:59.024Z,10.45
2019-05-18T00:37:29.995Z,11.22
2019-05-18T00:40:01.557Z,10.40
2019-05-18T00:42:32.563Z,10.90
2019-05-18T00:45:04.504Z,10.63
2019-05-18T00:47:41.360Z,9.98
2019-05-18T00:50:09.102Z,10.60
2019-05-18T00:52:40.087Z,10.10
2019-05-18T00:55:11.252Z,8.83
2019-05-18T00:57:42.527Z,10.43
2019-05-18T01:00:14.080Z,10.45
2019-05-18T01:02:45.088Z,10.43
2019-05-18T01:05:16.329Z,9.38
2019-05-18T01:07:48.296Z,10.32
2019-05-18T01:10:19.368Z,10.00
2019-05-18T01:12:50.370Z,10.32
2019-05-18T01:15:21.732Z,10.60
2019-05-18T01:17:57.573Z,10.28
2019-05-18T01:20:25.406Z,10.03
2019-05-18T01:22:56.412Z,9.63
2019-05-18T01:25:27.845Z,9.65
2019-05-18T01:27:58.833Z,11.22
2019-05-18T01:30:29.811Z,11.63
2019-05-18T01:33:00.782Z,11.03
2019-05-18T01:35:31.783Z,11.28
2019-05-18T01:38:02.773Z,10.18
2019-05-18T01:40:33.772Z,9.38
2019-05-18T01:43:04.774Z,10.23
2019-05-18T01:45:35.744Z,9.88
2019-05-18T01:48:14.179Z,9.78
2019-05-18T01:50:39.886Z,10.18
2019-05-18T01:53:10.905Z,9.58
2019-05-18T01:55:41.879Z,10.10
2019-05-18T01:58:12.885Z,10.98
2019-05-18T02:00:43.853Z,11.05
2019-05-18T02:03:14.852Z,10.65
2019-05-18T02:05:45.859Z,10.58
2019-05-18T02:08:16.838Z,10.25
2019-05-18T02:10:47.814Z,10.63
2019-05-18T02:13:18.841Z,9.85
2019-05-18T02:15:49.820Z,10.63
2019-05-18T02:18:29.194Z,9.80
2019-05-18T02:20:55.078Z,10.18
2019-05-18T02:23:26.103Z,8.50
2019-05-18T02:25:57.083Z,10.58
2019-05-18T02:28:28.143Z,9.98
2019-05-18T02:30:59.114Z,9.43
2019-05-18T02:33:30.119Z,9.40
2019-05-18T02:36:01.534Z,10.25
2019-05-18T02:38:32.530Z,10.18
2019-05-18T02:41:03.504Z,10.90
2019-05-18T02:43:34.587Z,10.00
2019-05-18T02:46:05.913Z,10.13
2019-05-18T02:48:48.820Z,10.65
2019-05-18T02:51:11.680Z,9.88
2019-05-18T02:53:42.292Z,10.53
2019-05-18T02:56:13.262Z,9.03
2019-05-18T02:58:44.241Z,9.63
2019-05-18T03:01:15.210Z,9.58
2019-05-18T03:03:46.195Z,9.70
2019-05-18T03:06:17.164Z,9.63
2019-05-18T03:08:48.142Z,7.95
2019-05-18T03:11:19.157Z,8.50
2019-05-18T03:13:50.084Z,9.95
2019-05-18T03:16:21.056Z,9.40
2019-05-18T03:19:06.716Z,10.68
2019-05-18T03:21:24.712Z,10.20
2019-05-18T03:23:55.696Z,10.38
2019-05-18T03:26:26.674Z,9.60
2019-05-18T03:28:57.658Z,9.80
2019-05-18T03:31:28.624Z,10.93
2019-05-18T03:33:59.624Z,10.75
2019-05-18T03:36:30.671Z,11.38
2019-05-18T03:39:01.675Z,9.83
2019-05-18T03:41:32.700Z,9.98
2019-05-18T03:44:03.763Z,11.48
2019-05-18T03:46:34.734Z,10.65
2019-05-18T03:49:05.818Z,10.23
2019-05-18T03:51:36.805Z,10.80
2019-05-18T03:54:07.788Z,10.15
2019-05-18T03:56:38.792Z,9.93
2019-05-18T03:59:09.764Z,11.05
2019-05-18T04:01:41.108Z,10.55
2019-05-18T04:04:12.098Z,9.95
2019-05-18T04:06:43.078Z,10.03
2019-05-18T04:09:14.060Z,12.55
2019-05-18T04:11:45.064Z,10.53
2019-05-18T04:14:16.082Z,9.63
2019-05-18T04:16:47.080Z,11.03
2019-05-18T04:19:18.054Z,11.93
2019-05-18T04:21:49.046Z,11.22
2019-05-18T04:24:20.005Z,11.20
2019-05-18T04:26:50.999Z,11.10
2019-05-18T04:29:21.997Z,11.33
2019-05-18T04:31:52.984Z,12.10
2019-05-18T04:34:23.966Z,12.58
2019-05-18T04:36:54.947Z,12.10
2019-05-18T04:39:25.942Z,12.13
2019-05-18T04:41:56.908Z,11.55
2019-05-18T04:44:27.912Z,11.83
2019-05-18T04:46:58.873Z,11.12
2019-05-18T04:49:29.870Z,11.38
2019-05-18T04:52:00.863Z,11.73
2019-05-18T04:54:31.853Z,12.07
2019-05-18T04:57:02.832Z,11.20
2019-05-18T04:59:33.818Z,12.05
2019-05-18T05:02:04.806Z,10.90
2019-05-18T05:04:35.813Z,11.83
2019-05-18T05:07:06.751Z,13.35
2019-05-18T05:09:37.733Z,11.97
2019-05-18T05:12:08.749Z,14.45
2019-05-18T05:14:39.746Z,13.22
2019-05-18T05:17:10.753Z,14.68
2019-05-18T05:19:41.760Z,13.18
2019-05-18T05:22:12.740Z,13.48
2019-05-18T05:24:43.721Z,13.30
2019-05-18T05:27:14.713Z,15.65
2019-05-18T05:29:45.685Z,13.40
2019-05-18T05:32:16.665Z,13.32
2019-05-18T05:34:47.655Z,15.45
2019-05-18T05:37:18.633Z,13.88
2019-05-18T05:39:49.619Z,13.90
2019-05-18T05:42:20.890Z,14.10
2019-05-18T05:44:51.864Z,14.23
2019-05-18T05:47:22.844Z,13.88
2019-05-18T05:49:53.995Z,14.30
2019-05-18T05:52:24.977Z,13.68
2019-05-18T05:54:55.991Z,14.50
2019-05-18T05:57:26.965Z,14.65
2019-05-18T05:59:57.949Z,15.35
2019-05-18T06:02:28.917Z,13.70
2019-05-18T06:04:59.921Z,15.40
2019-05-18T06:07:30.947Z,15.18
2019-05-18T06:10:01.920Z,15.75
2019-05-18T06:12:32.934Z,13.95
2019-05-18T06:15:05.646Z,16.02
2019-05-18T06:17:36.624Z,12.73
2019-05-18T06:20:08.819Z,14.93
2019-05-18T06:22:39.818Z,13.35
2019-05-18T06:25:11.472Z,15.03
2019-05-18T06:27:42.438Z,15.25
2019-05-18T06:30:15.191Z,14.70
2019-05-18T06:32:46.168Z,12.75
2019-05-18T06:35:17.175Z,13.22
2019-05-18T06:37:48.140Z,12.88
2019-05-18T06:40:19.162Z,12.47
2019-05-18T06:42:50.142Z,12.28
2019-05-18T06:45:21.279Z,13.40
2019-05-18T06:47:52.266Z,10.95
2019-05-18T06:50:29.590Z,12.47
2019-05-18T06:53:00.847Z,13.25
2019-05-18T06:55:32.222Z,11.90
2019-05-18T06:58:03.252Z,10.90
2019-05-18T07:00:34.253Z,12.78
2019-05-18T07:03:05.312Z,12.40
2019-05-18T07:05:36.314Z,11.57
2019-05-18T07:08:07.330Z,12.60
2019-05-18T07:10:38.334Z,13.53
2019-05-18T07:13:09.339Z,12.95
2019-05-18T07:15:42.190Z,13.28
2019-05-18T07:18:14.146Z,12.35
2019-05-18T07:20:45.129Z,13.35
2019-05-18T07:23:16.125Z,13.93
2019-05-18T07:25:47.106Z,13.10
2019-05-18T07:28:18.082Z,14.18
2019-05-18T07:30:49.115Z,12.70
2019-05-18T07:33:20.092Z,12.33
2019-05-18T07:35:51.082Z,14.68
2019-05-18T07:38:22.072Z,13.10
2019-05-18T07:40:53.051Z,12.85
2019-05-18T07:43:24.045Z,11.43
2019-05-18T07:45:55.005Z,12.65
2019-05-18T07:48:25.981Z,12.65
2019-05-18T07:50:56.953Z,11.75
2019-05-18T07:53:27.936Z,10.85
2019-05-18T07:55:58.932Z,12.78
2019-05-18T07:58:29.936Z,12.20
2019-05-18T08:01:01.588Z,12.05
2019-05-18T08:03:35.514Z,10.95
2019-05-18T08:06:06.499Z,12.10
2019-05-18T08:08:37.466Z,12.45
2019-05-18T08:11:08.452Z,12.20
2019-05-18T08:13:39.427Z,12.53
2019-05-18T08:16:10.393Z,12.07
2019-05-18T08:18:41.374Z,10.00
2019-05-18T08:21:12.361Z,11.38
2019-05-18T08:23:43.353Z,10.50
2019-05-18T08:26:14.327Z,10.55
2019-05-18T08:28:45.309Z,10.53
2019-05-18T08:31:16.292Z,10.05
2019-05-18T08:33:47.299Z,10.98
2019-05-18T08:36:18.294Z,10.23
2019-05-18T08:38:49.270Z,9.60
2019-05-18T08:41:21.135Z,10.20
2019-05-18T08:43:52.106Z,10.40
2019-05-18T08:46:23.078Z,9.95
2019-05-18T08:48:54.073Z,8.98
2019-05-18T08:51:25.029Z,8.23
2019-05-18T08:53:56.001Z,8.28
2019-05-18T08:56:26.984Z,7.65
2019-05-18T08:58:57.961Z,8.65
2019-05-18T09:01:28.921Z,8.83
2019-05-18T09:03:59.938Z,10.23
2019-05-18T09:06:30.977Z,8.70
2019-05-18T09:09:01.965Z,7.58
2019-05-18T09:11:32.940Z,6.58
2019-05-18T09:14:03.916Z,7.65
2019-05-18T09:16:34.928Z,7.53
2019-05-18T09:19:06.040Z,6.83
2019-05-18T09:21:36.992Z,6.33
2019-05-18T09:24:07.978Z,6.50
2019-05-18T09:26:39.151Z,5.22
2019-05-18T09:29:10.241Z,5.92
2019-05-18T09:31:41.381Z,5.65
2019-05-18T09:34:12.376Z,5.28
2019-05-18T09:36:43.371Z,5.53
2019-05-18T09:39:14.387Z,4.75
2019-05-18T09:41:45.382Z,4.45
2019-05-18T09:44:16.352Z,3.98
2019-05-18T09:46:47.384Z,3.75
2019-05-18T09:49:19.426Z,4.65
2019-05-18T09:51:50.475Z,4.00
2019-05-18T09:54:21.444Z,3.67
2019-05-18T09:56:52.441Z,3.77
2019-05-18T09:59:23.413Z,3.72
2019-05-18T10:01:54.374Z,3.83
2019-05-18T10:04:25.360Z,4.05
2019-05-18T10:06:56.332Z,4.30
2019-05-18T10:09:37.035Z,5.15
2019-05-18T10:12:00.019Z,5.08
2019-05-18T10:14:31.044Z,4.67
2019-05-18T10:17:02.038Z,4.12
2019-05-18T10:19:33.018Z,4.22
2019-05-18T10:22:03.989Z,4.08
2019-05-18T10:24:34.975Z,3.47
2019-05-18T10:27:05.948Z,3.17
2019-05-18T10:29:37.187Z,3.85
2019-05-18T10:32:08.534Z,3.70
2019-05-18T10:34:41.160Z,3.70
2019-05-18T10:37:12.178Z,3.40
2019-05-18T10:39:43.139Z,4.42
2019-05-18T10:42:14.128Z,3.85
2019-05-18T10:44:45.095Z,4.30
2019-05-18T10:47:16.089Z,4.05
2019-05-18T10:49:48.147Z,4.33
2019-05-18T10:52:19.121Z,4.22
2019-05-18T10:54:50.091Z,3.87
2019-05-18T10:57:21.086Z,3.62
2019-05-18T10:59:52.049Z,3.92
2019-05-18T11:02:23.039Z,3.85
2019-05-18T11:04:54.017Z,4.35
2019-05-18T11:07:25.022Z,3.80
2019-05-18T11:09:55.998Z,3.90
2019-05-18T11:12:26.982Z,2.77
2019-05-18T11:14:57.957Z,3.22
2019-05-18T11:17:28.947Z,4.12
2019-05-18T11:20:01.387Z,3.92
2019-05-18T11:22:32.416Z,3.98
2019-05-18T11:25:03.783Z,3.45
2019-05-18T11:27:34.747Z,3.33
2019-05-18T11:30:10.792Z,3.46
2019-05-18T11:32:42.792Z,3.20
2019-05-18T11:35:14.096Z,4.22
2019-05-18T11:37:45.081Z,3.85
2019-05-18T11:40:16.347Z,4.03
2019-05-18T11:42:47.347Z,3.87
2019-05-18T11:45:19.523Z,4.00
2019-05-18T11:47:50.503Z,4.03
2019-05-18T11:50:21.944Z,2.80
2019-05-18T11:52:52.907Z,2.30
2019-05-18T11:55:23.883Z,2.45
2019-05-18T11:57:54.865Z,1.90
2019-05-18T12:00:26.047Z,3.25
2019-05-18T12:02:57.080Z,2.72
2019-05-18T12:05:28.073Z,2.37
2019-05-18T12:07:59.056Z,1.82
2019-05-18T12:10:30.021Z,2.30
2019-05-18T12:13:01.558Z,2.58
2019-05-18T12:15:32.895Z,2.45
2019-05-18T12:18:03.870Z,2.30
2019-05-18T12:20:34.937Z,2.47
2019-05-18T12:23:08.232Z,2.55
2019-05-18T12:25:38.580Z,2.45
2019-05-18T12:28:09.575Z,2.30
2019-05-18T12:30:41.005Z,2.70
2019-05-18T12:33:11.972Z,2.27
2019-05-18T12:35:43.112Z,2.70
2019-05-18T12:38:14.093Z,2.58
2019-05-18T12:40:45.067Z,2.50
2019-05-18T12:43:16.028Z,2.02
2019-05-18T12:45:47.000Z,1.67
2019-05-18T12:48:17.966Z,2.25
2019-05-18T12:50:48.946Z,2.00
2019-05-18T12:53:19.915Z,1.55
2019-05-18T12:55:50.916Z,2.20
2019-05-18T12:58:21.887Z,2.60
2019-05-18T13:00:52.868Z,2.50
2019-05-18T13:03:24.915Z,2.95
2019-05-18T13:05:55.897Z,2.75
2019-05-18T13:08:26.884Z,2.80
2019-05-18T13:10:57.859Z,2.55
2019-05-18T13:13:28.823Z,2.33
2019-05-18T13:15:59.786Z,3.15
2019-05-18T13:18:30.760Z,3.42
2019-05-18T13:21:01.734Z,2.95
2019-05-18T13:23:32.739Z,2.98
2019-05-18T13:26:03.708Z,2.95
2019-05-18T13:28:34.693Z,2.80
2019-05-18T13:31:05.669Z,2.50
2019-05-18T13:33:36.649Z,3.12
2019-05-18T13:36:07.623Z,2.55
2019-05-18T13:38:40.252Z,2.76
2019-05-18T13:41:11.238Z,2.35
2019-05-18T13:43:42.208Z,2.10
2019-05-18T13:46:18.396Z,2.80
2019-05-18T13:48:50.453Z,2.20
2019-05-18T13:51:21.420Z,2.02
2019-05-18T13:53:52.384Z,2.42
2019-05-18T13:56:23.382Z,2.27
2019-05-18T13:58:54.420Z,2.27
2019-05-18T14:01:25.387Z,2.15
2019-05-18T14:03:56.354Z,2.27
2019-05-18T14:06:27.328Z,2.33
2019-05-18T14:08:58.313Z,2.30
2019-05-18T14:11:29.284Z,2.67
2019-05-18T14:14:00.284Z,2.30
2019-05-18T14:16:31.225Z,2.52
2019-05-18T14:19:02.495Z,2.58
2019-05-18T14:21:33.479Z,1.80
2019-05-18T14:24:04.492Z,2.02
2019-05-18T14:26:35.487Z,2.47
2019-05-18T14:29:06.464Z,2.50
2019-05-18T14:31:37.427Z,2.72
2019-05-18T14:34:08.397Z,2.02
2019-05-18T14:36:39.351Z,2.45
2019-05-18T14:39:10.336Z,2.00
2019-05-18T14:41:42.622Z,2.10
2019-05-18T14:44:13.678Z,2.22
2019-05-18T14:46:44.650Z,2.10
2019-05-18T14:49:15.614Z,2.10
2019-05-18T14:51:46.605Z,2.42
2019-05-18T14:54:17.561Z,2.58
2019-05-18T14:56:48.530Z,2.10
2019-05-18T14:59:19.503Z,2.37
2019-05-18T15:01:50.494Z,1.80
2019-05-18T15:04:21.456Z,1.67
2019-05-18T15:06:52.459Z,2.02
2019-05-18T15:09:23.449Z,2.22
2019-05-18T15:11:54.422Z,2.20
2019-05-18T15:14:25.397Z,2.35
2019-05-18T15:16:56.405Z,2.35
2019-05-18T15:19:27.395Z,2.17
2019-05-18T15:21:58.363Z,2.58
2019-05-18T15:24:29.337Z,1.95
2019-05-18T15:27:01.508Z,2.27
2019-05-18T15:29:32.500Z,2.17
2019-05-18T15:32:03.466Z,2.27
2019-05-18T15:34:34.465Z,2.30
2019-05-18T15:37:05.443Z,2.30
2019-05-18T15:39:36.427Z,2.10
2019-05-18T15:42:07.468Z,2.10
2019-05-18T15:44:41.087Z,2.02
2019-05-18T15:47:11.126Z,1.90
2019-05-18T15:49:43.200Z,2.08
2019-05-18T15:52:14.166Z,1.80
2019-05-18T15:54:45.160Z,1.67
2019-05-18T15:57:16.120Z,2.27
2019-05-18T15:59:48.185Z,2.05
2019-05-18T16:02:19.155Z,2.58
2019-05-18T16:04:50.154Z,2.50
2019-05-18T16:07:21.416Z,1.65
2019-05-18T16:09:52.468Z,2.25
2019-05-18T16:12:23.430Z,2.30
2019-05-18T16:14:54.435Z,2.47
2019-05-18T16:17:38.457Z,2.02
2019-05-18T16:19:59.633Z,2.58
2019-05-18T16:22:31.692Z,2.50
2019-05-18T16:25:02.649Z,1.90
2019-05-18T16:27:33.634Z,1.82
2019-05-18T16:30:07.944Z,2.00
2019-05-18T16:32:38.912Z,1.87
2019-05-18T16:35:11.221Z,2.12
2019-05-18T16:37:42.920Z,1.90
2019-05-18T16:40:14.241Z,2.00
2019-05-18T16:42:46.717Z,1.75
2019-05-18T16:45:18.231Z,1.95
2019-05-18T16:47:49.493Z,1.70
2019-05-18T16:50:20.645Z,2.05
2019-05-18T16:52:51.640Z,2.30
2019-05-18T16:55:22.591Z,1.92
2019-05-18T16:57:53.559Z,1.75
2019-05-18T17:00:27.340Z,1.77
2019-05-18T17:02:58.347Z,1.62
2019-05-18T17:05:29.317Z,1.60
2019-05-18T17:08:00.289Z,2.12
2019-05-18T17:10:31.256Z,2.02
2019-05-18T17:13:02.241Z,1.80
2019-05-18T17:15:33.219Z,1.60
2019-05-18T17:18:04.181Z,1.60
2019-05-18T17:20:35.165Z,1.72
2019-05-18T17:23:06.097Z,1.90
2019-05-18T17:25:37.144Z,1.90
2019-05-18T17:28:08.116Z,1.67
2019-05-18T17:30:42.477Z,2.20
2019-05-18T17:33:11.773Z,1.80
2019-05-18T17:35:57.980Z,1.25
2019-05-18T17:38:15.428Z,1.72
2019-05-18T17:40:46.390Z,1.80
2019-05-18T17:43:17.758Z,1.90
2019-05-18T17:45:49.789Z,1.82
2019-05-18T17:48:20.775Z,1.67
2019-05-18T17:50:52.808Z,1.50
2019-05-18T17:53:23.783Z,2.10
2019-05-18T17:55:55.821Z,2.40
2019-05-18T17:58:26.802Z,2.02
2019-05-18T18:00:58.873Z,1.70
2019-05-18T18:03:30.913Z,1.90
2019-05-18T18:06:02.962Z,1.80
2019-05-18T18:08:34.600Z,1.52
2019-05-18T18:11:05.578Z,1.30
2019-05-18T18:13:36.548Z,1.30
2019-05-18T18:16:07.585Z,1.40
2019-05-18T18:18:38.587Z,1.60
2019-05-18T18:21:09.566Z,1.45
2019-05-18T18:23:40.588Z,1.70
2019-05-18T18:26:11.544Z,1.87
2019-05-18T18:28:42.528Z,1.90
2019-05-18T18:31:13.762Z,1.85
2019-05-18T18:33:44.773Z,2.10
2019-05-18T18:36:15.715Z,1.67
2019-05-18T18:38:47.763Z,2.05
2019-05-18T18:41:18.732Z,1.62
2019-05-18T18:43:49.721Z,1.67
2019-05-18T18:46:20.691Z,2.02
2019-05-18T18:48:51.683Z,1.92
2019-05-18T18:51:22.664Z,2.05
2019-05-18T18:53:53.627Z,2.62
2019-05-18T18:56:24.622Z,2.67
2019-05-18T18:58:55.588Z,2.20
2019-05-18T19:01:26.559Z,2.30
2019-05-18T19:03:57.555Z,1.90
2019-05-18T19:06:28.588Z,2.50
2019-05-18T19:08:59.555Z,2.95
2019-05-18T19:11:30.531Z,2.58
2019-05-18T19:14:02.154Z,3.05
2019-05-18T19:16:33.118Z,2.90
2019-05-18T19:19:04.125Z,2.42
2019-05-18T19:21:35.113Z,2.83
2019-05-18T19:24:06.996Z,5.58
2019-05-18T19:26:37.979Z,4.72
2019-05-18T19:29:08.976Z,5.62
2019-05-18T19:31:39.944Z,4.75
2019-05-18T19:34:10.953Z,5.17
2019-05-18T19:36:41.925Z,4.15
2019-05-18T19:39:12.890Z,4.12
2019-05-18T19:41:43.969Z,3.35
2019-05-18T19:44:14.933Z,3.27
2019-05-18T19:46:45.931Z,3.37
2019-05-18T19:49:16.921Z,3.30
2019-05-18T19:51:47.906Z,3.12
2019-05-18T19:54:18.892Z,2.95
2019-05-18T19:56:50.394Z,2.58
2019-05-18T19:59:21.454Z,3.00
2019-05-18T20:01:52.422Z,2.90
2019-05-18T20:04:23.481Z,2.83
2019-05-18T20:06:54.465Z,3.20
2019-05-18T20:09:25.461Z,3.45
2019-05-18T20:11:56.434Z,4.00
2019-05-18T20:14:27.431Z,4.28
2019-05-18T20:16:58.417Z,3.70
2019-05-18T20:19:38.658Z,3.83
2019-05-18T20:22:04.843Z,3.50
2019-05-18T20:24:35.839Z,3.60
2019-05-18T20:27:06.805Z,3.95
2019-05-18T20:29:37.775Z,4.03
2019-05-18T20:32:08.764Z,3.58
2019-05-18T20:34:39.767Z,3.58
2019-05-18T20:37:10.743Z,3.72
2019-05-18T20:39:41.994Z,3.92
2019-05-18T20:42:12.985Z,4.53
2019-05-18T20:44:44.233Z,4.45
2019-05-18T20:47:15.201Z,3.50
2019-05-18T20:49:46.856Z,4.15
2019-05-18T20:52:17.833Z,3.83
2019-05-18T20:54:48.829Z,3.50
2019-05-18T20:57:21.466Z,3.58
2019-05-18T20:59:52.453Z,3.58
2019-05-18T21:02:24.729Z,3.83
2019-05-18T21:04:55.704Z,3.40
2019-05-18T21:07:26.678Z,4.12
2019-05-18T21:09:57.659Z,3.77
2019-05-18T21:12:28.660Z,3.65
2019-05-18T21:14:59.625Z,3.40
2019-05-18T21:17:30.577Z,3.58
2019-05-18T21:20:01.573Z,3.75
2019-05-18T21:22:32.549Z,4.08
2019-05-18T21:25:03.955Z,3.27
2019-05-18T21:27:34.913Z,4.05
2019-05-18T21:30:07.621Z,3.55
2019-05-18T21:32:38.603Z,3.92
2019-05-18T21:35:09.622Z,5.22
2019-05-18T21:37:40.594Z,5.87
2019-05-18T21:40:12.525Z,7.17
2019-05-18T21:42:43.551Z,5.80
2019-05-18T21:45:15.841Z,5.97
2019-05-18T21:48:06.352Z,5.35
2019-05-18T21:50:37.494Z,5.30
2019-05-18T21:53:08.450Z,4.75
2019-05-18T21:55:39.415Z,4.17
2019-05-18T21:58:12.276Z,4.55
2019-05-18T22:00:43.657Z,4.00
2019-05-18T22:03:14.610Z,4.05
2019-05-18T22:05:45.577Z,4.17
2019-05-18T22:08:16.558Z,4.17
2019-05-18T22:10:47.523Z,4.40
2019-05-18T22:13:18.483Z,5.20
2019-05-18T22:15:49.452Z,4.80
2019-05-18T22:18:24.582Z,4.80
2019-05-18T22:20:53.080Z,4.87
2019-05-18T22:23:24.032Z,4.15
2019-05-18T22:25:57.018Z,5.15
2019-05-18T22:28:27.673Z,5.28
2019-05-18T22:30:58.629Z,4.58
2019-05-18T22:33:29.591Z,4.08
2019-05-18T22:36:00.558Z,4.30
2019-05-18T22:38:31.566Z,4.42
2019-05-18T22:41:02.488Z,4.53
2019-05-18T22:43:33.540Z,4.67
2019-05-18T22:46:04.465Z,4.08
2019-05-18T22:48:41.237Z,4.20
2019-05-18T22:51:08.099Z,4.33
2019-05-18T22:53:39.069Z,4.87
2019-05-18T22:56:10.028Z,5.15
2019-05-18T22:58:40.994Z,5.72
2019-05-18T23:01:11.946Z,4.92
2019-05-18T23:03:43.883Z,5.15
2019-05-18T23:06:14.854Z,4.95
2019-05-18T23:08:45.815Z,4.62
2019-05-18T23:11:16.803Z,5.08
2019-05-18T23:13:47.806Z,4.58
2019-05-18T23:16:18.776Z,4.53
2019-05-18T23:18:56.907Z,4.40
2019-05-18T23:21:22.471Z,4.20
2019-05-18T23:23:53.510Z,4.78
2019-05-18T23:26:24.525Z,4.45
2019-05-18T23:28:55.517Z,4.30
2019-05-18T23:31:26.502Z,4.17
2019-05-18T23:33:58.557Z,4.47
2019-05-18T23:36:29.536Z,4.40
2019-05-18T23:39:00.502Z,4.78
2019-05-18T23:41:31.541Z,4.80
2019-05-18T23:44:02.506Z,4.22
2019-05-18T23:46:33.502Z,5.22
2019-05-18T23:49:10.821Z,4.60
2019-05-18T23:51:37.144Z,4.37
2019-05-18T23:54:08.129Z,4.22
2019-05-18T23:56:39.099Z,4.00
2019-05-18T23:59:10.069Z,4.40
